createdAt,value
2023-01-11T00:00:47.910Z,0.00
2023-01-11T00:01:47.914Z,0.00
2023-01-11T00:02:47.973Z,0.00
2023-01-11T00:03:47.942Z,0.00
2023-01-11T00:04:47.972Z,0.00
2023-01-11T00:05:47.950Z,0.00
2023-01-11T00:06:48.035Z,0.00
2023-01-11T00:07:48.023Z,0.00
2023-01-11T00:08:48.042Z,0.00
2023-01-11T00:09:48.071Z,0.00
2023-01-11T00:10:48.078Z,0.00
2023-01-11T00:11:48.079Z,0.00
2023-01-11T00:12:48.103Z,0.00
2023-01-11T00:13:48.128Z,0.00
2023-01-11T00:14:48.178Z,0.00
2023-01-11T00:15:48.239Z,0.00
2023-01-11T00:16:48.138Z,0.00
2023-01-11T00:17:48.166Z,0.00
2023-01-11T00:18:48.170Z,0.00
2023-01-11T00:19:48.167Z,0.00
2023-01-11T00:20:48.164Z,0.00
2023-01-11T00:21:48.194Z,0.00
2023-01-11T00:22:48.206Z,0.00
2023-01-11T00:23:48.241Z,0.00
2023-01-11T00:24:48.245Z,0.00
2023-01-11T00:25:48.259Z,0.00
2023-01-11T00:26:48.272Z,0.00
2023-01-11T00:27:48.314Z,0.00
2023-01-11T00:28:48.284Z,0.00
2023-01-11T00:29:48.301Z,0.00
2023-01-11T00:30:48.311Z,0.00
2023-01-11T00:31:48.338Z,0.00
2023-01-11T00:32:48.361Z,0.00
2023-01-11T00:33:48.379Z,0.00
2023-01-11T00:34:48.407Z,0.00
2023-01-11T00:35:48.368Z,0.00
2023-01-11T00:36:48.403Z,0.00
2023-01-11T00:37:48.422Z,0.00
2023-01-11T00:38:48.438Z,0.00
2023-01-11T00:39:48.458Z,0.00
2023-01-11T00:40:48.483Z,0.00
2023-01-11T00:41:48.505Z,0.00
2023-01-11T00:42:48.520Z,0.00
2023-01-11T00:43:48.560Z,0.00
2023-01-11T00:44:48.644Z,0.00
2023-01-11T00:45:48.682Z,0.00
2023-01-11T00:46:48.627Z,0.00
2023-01-11T00:47:48.639Z,0.00
2023-01-11T00:48:48.670Z,0.00
2023-01-11T00:49:48.687Z,0.00
2023-01-11T00:50:48.742Z,0.00
2023-01-11T00:51:48.713Z,0.00
2023-01-11T00:52:48.724Z,0.00
2023-01-11T00:53:48.758Z,0.00
2023-01-11T00:54:48.872Z,0.00
2023-01-11T00:55:48.784Z,0.00
2023-01-11T00:56:48.817Z,0.00
2023-01-11T00:57:48.842Z,0.00
2023-01-11T00:58:48.856Z,0.00
2023-01-11T00:59:48.879Z,0.00
2023-01-11T01:00:48.872Z,0.00
2023-01-11T01:01:48.893Z,0.00
2023-01-11T01:02:48.950Z,0.00
2023-01-11T01:03:48.897Z,0.00
2023-01-11T01:04:49.023Z,0.00
2023-01-11T01:05:48.937Z,0.00
2023-01-11T01:06:49.032Z,0.00
2023-01-11T01:07:48.960Z,0.00
2023-01-11T01:08:48.989Z,0.00
2023-01-11T01:09:49.013Z,0.00
2023-01-11T01:10:49.037Z,0.00
2023-01-11T01:11:49.055Z,0.00
2023-01-11T01:12:49.079Z,0.00
2023-01-11T01:13:49.059Z,0.00
2023-01-11T01:14:49.062Z,0.00
2023-01-11T01:15:49.136Z,0.00
2023-01-11T01:16:49.064Z,0.00
2023-01-11T01:17:49.096Z,0.00
2023-01-11T01:18:49.086Z,0.00
2023-01-11T01:19:49.115Z,0.00
2023-01-11T01:20:49.142Z,0.00
2023-01-11T01:21:49.170Z,0.00
2023-01-11T01:22:49.206Z,0.00
2023-01-11T01:23:49.201Z,0.00
2023-01-11T01:24:49.228Z,0.00
2023-01-11T01:25:49.258Z,0.00
2023-01-11T01:26:49.286Z,0.00
2023-01-11T01:27:49.294Z,0.00
2023-01-11T01:28:49.315Z,0.00
2023-01-11T01:29:49.337Z,0.00
2023-01-11T01:30:49.425Z,0.00
2023-01-11T01:31:49.377Z,0.00
2023-01-11T01:32:49.391Z,0.00
2023-01-11T01:33:49.404Z,0.00
2023-01-11T01:34:49.414Z,0.00
2023-01-11T01:35:49.424Z,0.00
2023-01-11T01:36:49.461Z,0.00
2023-01-11T01:37:49.483Z,0.00
2023-01-11T01:38:49.520Z,0.00
2023-01-11T01:39:49.536Z,0.00
2023-01-11T01:40:49.539Z,0.00
2023-01-11T01:41:49.591Z,0.00
2023-01-11T01:42:49.561Z,0.00
2023-01-11T01:43:49.564Z,0.00
2023-01-11T01:44:49.597Z,0.00
2023-01-11T01:45:49.607Z,0.00
2023-01-11T01:46:49.640Z,0.00
2023-01-11T01:47:49.660Z,0.00
2023-01-11T01:48:49.681Z,0.00
2023-01-11T01:49:49.724Z,0.00
2023-01-11T01:50:49.728Z,0.00
2023-01-11T01:51:49.705Z,0.00
2023-01-11T01:52:49.723Z,0.00
2023-01-11T01:53:49.736Z,0.00
2023-01-11T01:54:49.789Z,0.00
2023-01-11T01:55:49.747Z,0.00
2023-01-11T01:56:49.764Z,0.00
2023-01-11T01:57:49.796Z,0.00
2023-01-11T01:58:49.803Z,0.00
2023-01-11T01:59:49.822Z,0.00
2023-01-11T02:00:49.860Z,0.00
2023-01-11T02:01:50.028Z,0.00
2023-01-11T02:02:49.913Z,0.00
2023-01-11T02:03:49.835Z,0.00
2023-01-11T02:04:49.846Z,0.00
2023-01-11T02:05:49.876Z,0.00
2023-01-11T02:06:49.969Z,0.00
2023-01-11T02:07:49.869Z,0.00
2023-01-11T02:08:49.884Z,0.00
2023-01-11T02:09:49.891Z,0.00
2023-01-11T02:10:49.947Z,0.00
2023-01-11T02:11:49.908Z,0.00
2023-01-11T02:12:49.924Z,0.00
2023-01-11T02:13:49.931Z,0.00
2023-01-11T02:14:49.949Z,0.00
2023-01-11T02:15:50.009Z,0.00
2023-01-11T02:16:50.002Z,0.00
2023-01-11T02:17:50.021Z,0.00
2023-01-11T02:18:50.009Z,0.00
2023-01-11T02:19:50.007Z,0.00
2023-01-11T02:20:50.038Z,0.00
2023-01-11T02:21:50.001Z,0.00
2023-01-11T02:22:50.013Z,0.00
2023-01-11T02:23:50.025Z,0.00
2023-01-11T02:24:50.045Z,0.00
2023-01-11T02:25:50.081Z,0.00
2023-01-11T02:26:50.132Z,0.00
2023-01-11T02:27:50.086Z,0.00
2023-01-11T02:28:50.110Z,0.00
2023-01-11T02:29:50.136Z,0.00
2023-01-11T02:30:50.156Z,0.00
2023-01-11T02:31:50.134Z,0.00
2023-01-11T02:32:50.161Z,0.00
2023-01-11T02:33:50.183Z,0.00
2023-01-11T02:34:50.227Z,0.00
2023-01-11T02:35:50.239Z,0.00
2023-01-11T02:36:50.213Z,0.00
2023-01-11T02:37:50.203Z,0.00
2023-01-11T02:38:50.226Z,0.00
2023-01-11T02:39:50.249Z,0.00
2023-01-11T02:40:50.279Z,0.00
2023-01-11T02:41:50.516Z,0.00
2023-01-11T02:42:50.318Z,0.00
2023-01-11T02:43:50.313Z,0.00
2023-01-11T02:44:50.338Z,0.00
2023-01-11T02:45:50.323Z,0.00
2023-01-11T02:46:50.375Z,0.00
2023-01-11T02:47:50.330Z,0.00
2023-01-11T02:48:50.361Z,0.00
2023-01-11T02:49:50.419Z,0.00
2023-01-11T02:50:50.369Z,0.00
2023-01-11T02:51:50.371Z,0.00
2023-01-11T02:52:50.369Z,0.00
2023-01-11T02:53:50.363Z,0.00
2023-01-11T02:54:50.420Z,0.00
2023-01-11T02:55:50.397Z,0.00
2023-01-11T02:56:50.411Z,0.00
2023-01-11T02:57:50.431Z,0.00
2023-01-11T02:58:50.471Z,0.00
2023-01-11T02:59:50.447Z,0.00
2023-01-11T03:00:50.467Z,0.00
2023-01-11T03:01:50.525Z,0.00
2023-01-11T03:02:50.523Z,0.00
2023-01-11T03:03:50.484Z,0.00
2023-01-11T03:04:50.510Z,0.00
2023-01-11T03:05:50.494Z,0.00
2023-01-11T03:06:50.541Z,0.00
2023-01-11T03:07:50.523Z,0.00
2023-01-11T03:08:50.556Z,0.00
2023-01-11T03:09:50.569Z,0.00
2023-01-11T03:10:50.582Z,0.00
2023-01-11T03:11:50.602Z,0.00
2023-01-11T03:12:50.618Z,0.00
2023-01-11T03:13:50.630Z,0.00
2023-01-11T03:14:50.673Z,0.00
2023-01-11T03:15:50.787Z,0.00
2023-01-11T03:16:50.681Z,0.00
2023-01-11T03:17:50.699Z,0.00
2023-01-11T03:18:50.728Z,0.00
2023-01-11T03:19:50.733Z,0.00
2023-01-11T03:20:50.760Z,0.00
2023-01-11T03:21:50.787Z,0.00
2023-01-11T03:22:50.792Z,0.00
2023-01-11T03:23:50.869Z,0.00
2023-01-11T03:24:50.825Z,0.00
2023-01-11T03:25:50.820Z,0.00
2023-01-11T03:26:50.830Z,0.00
2023-01-11T03:27:50.818Z,0.00
2023-01-11T03:28:50.843Z,0.00
2023-01-11T03:29:50.823Z,0.00
2023-01-11T03:30:50.907Z,0.00
2023-01-11T03:31:50.836Z,0.00
2023-01-11T03:32:50.937Z,0.00
2023-01-11T03:33:50.966Z,0.00
2023-01-11T03:34:50.938Z,0.00
2023-01-11T03:35:50.952Z,0.00
2023-01-11T03:36:50.969Z,0.00
2023-01-11T03:37:50.954Z,0.00
2023-01-11T03:38:50.984Z,0.00
2023-01-11T03:39:51.013Z,0.00
2023-01-11T03:40:51.033Z,0.00
2023-01-11T03:41:51.067Z,0.00
2023-01-11T03:42:51.065Z,0.00
2023-01-11T03:43:51.096Z,0.00
2023-01-11T03:44:51.122Z,0.00
2023-01-11T03:45:51.133Z,0.00
2023-01-11T03:46:51.233Z,0.00
2023-01-11T03:47:51.163Z,0.00
2023-01-11T03:48:51.181Z,0.00
2023-01-11T03:49:51.192Z,0.00
2023-01-11T03:50:51.214Z,0.00
2023-01-11T03:51:51.214Z,0.00
2023-01-11T03:52:51.222Z,0.00
2023-01-11T03:53:51.238Z,0.00
2023-01-11T03:54:51.278Z,0.00
2023-01-11T03:55:51.295Z,0.00
2023-01-11T03:56:51.326Z,0.00
2023-01-11T03:57:51.449Z,0.00
2023-01-11T03:58:51.363Z,0.00
2023-01-11T03:59:51.385Z,0.00
2023-01-11T04:00:51.455Z,0.00
2023-01-11T04:01:51.405Z,0.00
2023-01-11T04:02:51.442Z,0.00
2023-01-11T04:03:51.602Z,0.00
2023-01-11T04:04:51.487Z,0.00
2023-01-11T04:05:51.498Z,0.00
2023-01-11T04:06:51.579Z,0.00
2023-01-11T04:07:51.555Z,0.00
2023-01-11T04:08:51.575Z,0.00
2023-01-11T04:09:51.589Z,0.00
2023-01-11T04:10:51.608Z,0.00
2023-01-11T04:11:51.619Z,0.00
2023-01-11T04:12:51.623Z,0.00
2023-01-11T04:13:51.664Z,0.00
2023-01-11T04:14:51.688Z,0.00
2023-01-11T04:15:51.677Z,0.00
2023-01-11T04:16:51.696Z,0.00
2023-01-11T04:17:51.715Z,0.00
2023-01-11T04:18:51.795Z,0.00
2023-01-11T04:19:51.757Z,0.00
2023-01-11T04:20:51.786Z,0.00
2023-01-11T04:21:51.793Z,0.00
2023-01-11T04:22:51.805Z,0.00
2023-01-11T04:23:51.837Z,0.00
2023-01-11T04:24:51.860Z,0.00
2023-01-11T04:25:51.872Z,0.00
2023-01-11T04:26:51.898Z,0.00
2023-01-11T04:27:51.895Z,0.00
2023-01-11T04:28:54.179Z,0.00
2023-01-11T04:29:51.902Z,0.00
2023-01-11T04:30:51.921Z,0.00
2023-01-11T04:31:52.078Z,0.00
2023-01-11T04:32:51.955Z,0.00
2023-01-11T04:33:51.957Z,0.00
2023-01-11T04:34:51.995Z,0.00
2023-01-11T04:35:51.962Z,0.00
2023-01-11T04:36:51.976Z,0.00
2023-01-11T04:37:52.008Z,0.00
2023-01-11T04:38:52.028Z,0.00
2023-01-11T04:39:52.042Z,0.00
2023-01-11T04:40:52.068Z,0.00
2023-01-11T04:41:52.116Z,0.00
2023-01-11T04:42:52.072Z,0.00
2023-01-11T04:43:52.104Z,0.00
2023-01-11T04:44:52.115Z,0.00
2023-01-11T04:45:52.194Z,0.00
2023-01-11T04:46:52.146Z,0.00
2023-01-11T04:47:52.161Z,0.00
2023-01-11T04:48:52.187Z,0.00
2023-01-11T04:49:52.210Z,0.00
2023-01-11T04:50:52.243Z,0.00
2023-01-11T04:51:52.228Z,0.00
2023-01-11T04:52:52.230Z,0.00
2023-01-11T04:53:52.231Z,0.00
2023-01-11T04:54:52.237Z,0.00
2023-01-11T04:55:52.256Z,0.00
2023-01-11T04:56:52.265Z,0.00
2023-01-11T04:57:52.279Z,0.00
2023-01-11T04:58:52.297Z,0.00
2023-01-11T04:59:52.309Z,0.00
2023-01-11T05:00:52.429Z,0.00
2023-01-11T05:01:52.347Z,0.00
2023-01-11T05:02:52.371Z,0.00
2023-01-11T05:03:52.417Z,0.00
2023-01-11T05:04:52.391Z,0.00
2023-01-11T05:05:52.411Z,0.00
2023-01-11T05:06:52.590Z,0.00
2023-01-11T05:07:52.453Z,0.00
2023-01-11T05:08:52.468Z,0.00
2023-01-11T05:09:52.488Z,0.00
2023-01-11T05:10:52.497Z,0.00
2023-01-11T05:11:52.508Z,0.00
2023-01-11T05:12:52.555Z,0.00
2023-01-11T05:13:52.579Z,0.00
2023-01-11T05:14:52.557Z,0.00
2023-01-11T05:15:52.575Z,0.00
2023-01-11T05:16:52.597Z,0.00
2023-01-11T05:17:52.626Z,0.00
2023-01-11T05:18:52.646Z,0.00
2023-01-11T05:19:52.655Z,0.00
2023-01-11T05:20:52.681Z,0.00
2023-01-11T05:21:52.696Z,0.00
2023-01-11T05:22:52.742Z,0.00
2023-01-11T05:23:52.757Z,0.00
2023-01-11T05:24:52.786Z,0.00
2023-01-11T05:25:52.767Z,0.00
2023-01-11T05:26:52.803Z,0.00
2023-01-11T05:27:52.810Z,0.00
2023-01-11T05:28:52.829Z,0.00
2023-01-11T05:29:52.855Z,0.00
2023-01-11T05:30:52.842Z,0.00
2023-01-11T05:31:52.907Z,0.00
2023-01-11T05:32:52.865Z,0.00
2023-01-11T05:33:52.883Z,0.00
2023-01-11T05:34:52.908Z,0.00
2023-01-11T05:35:54.512Z,0.00
2023-01-11T05:36:52.938Z,0.00
2023-01-11T05:37:52.941Z,0.00
2023-01-11T05:38:52.980Z,0.00
2023-01-11T05:39:52.995Z,0.00
2023-01-11T05:40:52.991Z,0.00
2023-01-11T05:41:53.010Z,0.00
2023-01-11T05:42:53.016Z,0.00
2023-01-11T05:43:53.036Z,0.00
2023-01-11T05:44:53.042Z,0.00
2023-01-11T05:45:53.087Z,0.00
2023-01-11T05:46:53.077Z,0.00
2023-01-11T05:47:53.103Z,0.00
2023-01-11T05:48:53.113Z,0.00
2023-01-11T05:49:53.138Z,0.00
2023-01-11T05:50:53.167Z,0.00
2023-01-11T05:51:53.174Z,0.00
2023-01-11T05:52:53.191Z,0.00
2023-01-11T05:53:53.209Z,0.00
2023-01-11T05:54:53.227Z,0.00
2023-01-11T05:55:53.235Z,0.00
2023-01-11T05:56:53.264Z,0.00
2023-01-11T05:57:53.276Z,0.00
2023-01-11T05:58:53.294Z,0.00
2023-01-11T05:59:53.332Z,0.00
2023-01-11T06:02:19.454Z,0.00
2023-01-11T06:03:19.332Z,0.00
2023-01-11T06:04:19.318Z,0.00
2023-01-11T06:05:19.329Z,0.00
2023-01-11T06:06:19.344Z,0.00
2023-01-11T06:07:19.346Z,0.00
2023-01-11T06:08:19.356Z,0.00
2023-01-11T06:09:19.389Z,0.00
2023-01-11T06:10:19.396Z,0.00
2023-01-11T06:11:19.374Z,0.00
2023-01-11T06:12:19.409Z,0.00
2023-01-11T06:13:19.417Z,0.00
2023-01-11T06:14:19.441Z,0.00
2023-01-11T06:15:19.447Z,0.00
2023-01-11T06:16:19.531Z,0.00
2023-01-11T06:17:19.459Z,0.00
2023-01-11T06:18:19.483Z,0.00
2023-01-11T06:19:19.513Z,0.00
2023-01-11T06:20:19.519Z,0.00
2023-01-11T06:21:19.530Z,0.00
2023-01-11T06:22:19.535Z,0.00
2023-01-11T06:23:19.565Z,0.00
2023-01-11T06:24:19.573Z,0.00
2023-01-11T06:25:19.577Z,0.00
2023-01-11T06:26:19.622Z,0.00
2023-01-11T06:27:19.630Z,0.00
2023-01-11T06:28:19.634Z,0.00
2023-01-11T06:29:19.658Z,0.00
2023-01-11T06:30:19.702Z,0.00
2023-01-11T06:31:19.829Z,0.00
2023-01-11T06:32:19.731Z,0.00
2023-01-11T06:33:19.734Z,0.00
2023-01-11T06:34:19.756Z,0.00
2023-01-11T06:35:19.785Z,0.00
2023-01-11T06:36:19.801Z,0.00
2023-01-11T06:37:19.806Z,0.00
2023-01-11T06:38:19.820Z,0.00
2023-01-11T06:39:19.823Z,0.00
2023-01-11T06:40:19.857Z,0.00
2023-01-11T06:41:19.828Z,0.00
2023-01-11T06:42:19.866Z,0.00
2023-01-11T06:43:19.824Z,0.00
2023-01-11T06:44:19.850Z,0.00
2023-01-11T06:45:19.872Z,0.00
2023-01-11T06:46:19.885Z,0.00
2023-01-11T06:47:19.851Z,0.00
2023-01-11T06:48:19.859Z,0.00
2023-01-11T06:49:19.864Z,0.00
2023-01-11T06:50:19.888Z,0.00
2023-01-11T06:51:19.892Z,0.00
2023-01-11T06:52:19.928Z,0.00
2023-01-11T06:53:19.960Z,0.00
2023-01-11T06:54:19.961Z,0.00
2023-01-11T06:55:19.965Z,0.00
2023-01-11T06:56:19.967Z,0.00
2023-01-11T06:57:19.994Z,0.00
2023-01-11T06:58:20.049Z,0.00
2023-01-11T06:59:20.000Z,0.00
2023-01-11T07:00:20.003Z,0.00
2023-01-11T07:01:20.015Z,0.00
2023-01-11T07:02:20.016Z,0.00
2023-01-11T07:03:20.045Z,0.00
2023-01-11T07:04:20.032Z,0.00
2023-01-11T07:05:22.200Z,0.00
2023-01-11T07:07:45.993Z,0.00
2023-01-11T07:08:46.011Z,0.00
2023-01-11T07:09:46.034Z,0.00
2023-01-11T07:10:46.051Z,0.00
2023-01-11T07:11:46.070Z,0.00
2023-01-11T07:12:46.091Z,0.00
2023-01-11T07:13:46.207Z,0.00
2023-01-11T07:14:46.134Z,0.00
2023-01-11T07:15:46.190Z,0.00
2023-01-11T07:16:46.164Z,0.00
2023-01-11T07:17:46.186Z,0.00
2023-01-11T07:18:46.792Z,0.00
2023-01-11T07:19:46.193Z,0.00
2023-01-11T07:20:46.222Z,0.00
2023-01-11T07:21:46.236Z,0.00
2023-01-11T07:22:46.242Z,0.00
2023-01-11T07:23:46.264Z,0.00
2023-01-11T07:24:48.421Z,0.00
2023-01-11T07:25:46.285Z,0.00
2023-01-11T07:26:46.326Z,0.00
2023-01-11T07:27:46.339Z,0.00
2023-01-11T07:28:46.341Z,0.00
2023-01-11T07:29:46.364Z,0.00
2023-01-11T07:30:58.282Z,0.00
2023-01-11T07:31:46.474Z,0.00
2023-01-11T07:32:46.404Z,0.00
2023-01-11T07:33:46.388Z,0.00
2023-01-11T07:34:46.399Z,0.00
2023-01-11T07:35:46.415Z,0.00
2023-01-11T07:36:46.446Z,0.00
2023-01-11T07:37:46.474Z,0.00
2023-01-11T07:38:46.489Z,0.00
2023-01-11T07:39:46.485Z,5.62
2023-01-11T07:40:46.532Z,5.62
2023-01-11T07:41:46.542Z,5.62
2023-01-11T07:42:46.572Z,5.62
2023-01-11T07:43:46.575Z,5.62
2023-01-11T07:44:46.624Z,5.62
2023-01-11T07:45:47.223Z,5.62
2023-01-11T07:46:46.678Z,5.62
2023-01-11T07:47:46.657Z,5.62
2023-01-11T07:48:46.647Z,5.62
2023-01-11T07:49:46.674Z,5.62
2023-01-11T07:50:46.701Z,5.62
2023-01-11T07:51:46.687Z,5.62
2023-01-11T07:52:46.696Z,5.62
2023-01-11T07:53:46.722Z,5.62
2023-01-11T07:54:46.747Z,5.62
2023-01-11T07:55:46.759Z,5.62
2023-01-11T07:56:46.777Z,5.62
2023-01-11T07:57:46.790Z,5.62
2023-01-11T07:58:46.791Z,11.25
2023-01-11T07:59:46.827Z,11.25
2023-01-11T08:00:46.851Z,11.25
2023-01-11T08:01:46.887Z,11.25
2023-01-11T08:02:46.929Z,11.25
2023-01-11T08:03:47.056Z,11.25
2023-01-11T08:04:46.895Z,11.25
2023-01-11T08:05:46.913Z,11.25
2023-01-11T08:06:46.949Z,11.25
2023-01-11T08:07:46.968Z,16.88
2023-01-11T08:08:46.979Z,16.88
2023-01-11T08:09:47.015Z,16.88
2023-01-11T08:10:47.062Z,16.88
2023-01-11T08:11:47.044Z,16.88
2023-01-11T08:12:47.070Z,16.88
2023-01-11T08:13:47.037Z,16.88
2023-01-11T08:14:47.048Z,16.88
2023-01-11T08:15:47.104Z,22.50
2023-01-11T08:16:47.051Z,22.50
2023-01-11T08:17:47.094Z,22.50
2023-01-11T08:18:47.057Z,22.50
2023-01-11T08:19:47.065Z,22.50
2023-01-11T08:20:47.081Z,22.50
2023-01-11T08:21:47.091Z,22.50
2023-01-11T08:22:47.112Z,22.50
2023-01-11T08:23:47.127Z,22.50
2023-01-11T08:24:47.156Z,22.50
2023-01-11T08:25:47.174Z,22.50
2023-01-11T08:26:47.217Z,22.50
2023-01-11T08:27:47.222Z,22.50
2023-01-11T08:28:47.244Z,28.12
2023-01-11T08:29:47.259Z,22.50
2023-01-11T08:30:47.348Z,22.50
2023-01-11T08:31:47.283Z,28.12
2023-01-11T08:32:47.279Z,22.50
2023-01-11T08:33:47.353Z,22.50
2023-01-11T08:34:47.327Z,22.50
2023-01-11T08:35:47.337Z,22.50
2023-01-11T08:36:47.350Z,22.50
2023-01-11T08:37:47.363Z,16.88
2023-01-11T08:38:47.391Z,22.50
2023-01-11T08:39:47.412Z,22.50
2023-01-11T08:40:47.417Z,22.50
2023-01-11T08:41:47.443Z,16.88
2023-01-11T08:42:47.468Z,16.88
2023-01-11T08:43:47.514Z,16.88
2023-01-11T08:44:47.488Z,11.25
2023-01-11T08:45:47.503Z,11.25
2023-01-11T08:46:47.540Z,11.25
2023-01-11T08:47:47.509Z,11.25
2023-01-11T08:48:47.570Z,11.25
2023-01-11T08:49:47.587Z,11.25
2023-01-11T08:50:47.566Z,11.25
2023-01-11T08:51:47.584Z,11.25
2023-01-11T08:52:47.598Z,16.88
2023-01-11T08:53:47.623Z,16.88
2023-01-11T08:54:47.618Z,16.88
2023-01-11T08:55:47.636Z,16.88
2023-01-11T08:56:47.671Z,22.50
2023-01-11T08:57:47.700Z,22.50
2023-01-11T08:58:47.642Z,22.50
2023-01-11T08:59:47.656Z,22.50
2023-01-11T09:00:47.642Z,22.50
2023-01-11T09:01:47.696Z,22.50
2023-01-11T09:02:47.649Z,22.50
2023-01-11T09:03:47.644Z,22.50
2023-01-11T09:04:47.630Z,22.50
2023-01-11T09:05:47.706Z,22.50
2023-01-11T09:06:47.674Z,22.50
2023-01-11T09:07:47.697Z,22.50
2023-01-11T09:08:47.719Z,22.50
2023-01-11T09:09:47.711Z,22.50
2023-01-11T09:10:47.721Z,28.12
2023-01-11T09:11:47.760Z,28.12
2023-01-11T09:12:47.740Z,28.12
2023-01-11T09:13:47.791Z,28.12
2023-01-11T09:14:47.792Z,28.12
2023-01-11T09:15:47.851Z,28.12
2023-01-11T09:16:48.125Z,28.12
2023-01-11T09:17:47.794Z,28.12
2023-01-11T09:18:47.800Z,28.12
2023-01-11T09:19:47.826Z,28.12
2023-01-11T09:20:47.815Z,28.12
2023-01-11T09:21:47.876Z,33.75
2023-01-11T09:22:47.847Z,28.12
2023-01-11T09:23:47.888Z,28.12
2023-01-11T09:24:47.937Z,28.12
2023-01-11T09:25:47.924Z,28.12
2023-01-11T09:26:47.985Z,28.12
2023-01-11T09:27:47.989Z,22.50
2023-01-11T09:28:48.058Z,22.50
2023-01-11T09:29:48.017Z,22.50
2023-01-11T09:30:47.998Z,22.50
2023-01-11T09:31:48.024Z,28.12
2023-01-11T09:32:48.050Z,22.50
2023-01-11T09:33:48.079Z,22.50
2023-01-11T09:34:48.058Z,22.50
2023-01-11T09:35:48.180Z,22.50
2023-01-11T09:36:48.105Z,22.50
2023-01-11T09:37:48.194Z,22.50
2023-01-11T09:38:48.177Z,28.12
2023-01-11T09:39:48.188Z,22.50
2023-01-11T09:40:48.210Z,22.50
2023-01-11T09:41:48.246Z,22.50
2023-01-11T09:42:48.242Z,22.50
2023-01-11T09:43:48.253Z,22.50
2023-01-11T09:44:48.268Z,22.50
2023-01-11T09:45:48.298Z,22.50
2023-01-11T09:46:48.469Z,22.50
2023-01-11T09:47:48.335Z,22.50
2023-01-11T09:48:48.330Z,22.50
2023-01-11T09:49:48.348Z,28.12
2023-01-11T09:50:48.395Z,28.12
2023-01-11T09:51:48.428Z,33.75
2023-01-11T09:52:49.404Z,33.75
2023-01-11T09:53:48.484Z,33.75
2023-01-11T09:54:48.452Z,33.75
2023-01-11T09:55:48.472Z,39.38
2023-01-11T09:56:48.499Z,39.38
2023-01-11T09:57:48.562Z,39.38
2023-01-11T09:58:48.559Z,39.38
2023-01-11T09:59:48.550Z,33.75
2023-01-11T10:00:48.609Z,33.75
2023-01-11T10:01:48.601Z,33.75
2023-01-11T10:02:48.592Z,33.75
2023-01-11T10:03:48.606Z,33.75
2023-01-11T10:04:48.698Z,33.75
2023-01-11T10:05:48.633Z,39.38
2023-01-11T10:06:48.644Z,39.38
2023-01-11T10:07:48.667Z,39.38
2023-01-11T10:18:22.927Z,39.38
2023-01-11T10:18:26.731Z,39.38
2023-01-11T10:18:30.856Z,45.00
2023-01-11T10:18:40.469Z,45.00
2023-01-11T10:19:05.296Z,45.00
2023-01-11T10:19:48.807Z,39.38
2023-01-11T10:20:48.768Z,33.75
2023-01-11T10:21:48.759Z,33.75
2023-01-11T10:22:48.771Z,33.75
2023-01-11T10:23:48.795Z,39.38
2023-01-11T10:24:48.815Z,39.38
2023-01-11T10:25:48.876Z,39.38
2023-01-11T10:26:48.941Z,39.38
2023-01-11T10:27:48.870Z,39.38
2023-01-11T10:28:48.833Z,39.38
2023-01-11T10:29:48.835Z,45.00
2023-01-11T10:30:48.877Z,45.00
2023-01-11T10:31:48.944Z,45.00
2023-01-11T10:32:49.644Z,39.38
2023-01-11T10:33:48.858Z,45.00
2023-01-11T10:34:48.844Z,45.00
2023-01-11T10:35:48.834Z,45.00
2023-01-11T10:36:49.208Z,45.00
2023-01-11T10:39:14.834Z,45.00
2023-01-11T10:41:43.059Z,50.62
2023-01-11T10:42:41.401Z,50.62
2023-01-11T10:43:40.810Z,50.62
2023-01-11T10:44:40.796Z,50.62
2023-01-11T10:45:40.881Z,50.62
2023-01-11T10:46:41.421Z,50.62
2023-01-11T10:47:40.915Z,50.62
2023-01-11T10:48:40.933Z,50.62
2023-01-11T10:49:40.948Z,50.62
2023-01-11T10:50:40.871Z,50.62
2023-01-11T10:51:40.933Z,50.62
2023-01-11T10:52:40.983Z,45.00
2023-01-11T10:53:40.949Z,45.00
2023-01-11T10:54:41.447Z,45.00
2023-01-11T10:55:41.021Z,45.00
2023-01-11T10:56:42.558Z,45.00
2023-01-11T10:58:00.423Z,39.38
2023-01-11T10:58:41.060Z,39.38
2023-01-11T10:59:41.026Z,39.38
2023-01-11T11:00:41.068Z,39.38
2023-01-11T11:01:41.098Z,39.38
2023-01-11T11:02:41.038Z,39.38
2023-01-11T11:03:41.014Z,33.75
2023-01-11T11:04:41.062Z,33.75
2023-01-11T11:05:41.067Z,33.75
2023-01-11T11:06:41.053Z,33.75
2023-01-11T11:07:41.090Z,33.75
2023-01-11T11:08:41.078Z,33.75
2023-01-11T11:09:41.101Z,33.75
2023-01-11T11:10:41.134Z,39.38
2023-01-11T11:11:41.125Z,39.38
2023-01-11T11:12:41.162Z,45.00
2023-01-11T11:13:43.312Z,45.00
2023-01-11T11:14:41.152Z,45.00
2023-01-11T11:15:41.185Z,45.00
2023-01-11T11:16:41.231Z,45.00
2023-01-11T11:17:41.229Z,45.00
2023-01-11T11:18:41.253Z,45.00
2023-01-11T11:19:42.034Z,50.62
2023-01-11T11:20:41.214Z,50.62
2023-01-11T11:21:41.224Z,45.00
2023-01-11T11:22:41.216Z,50.62
2023-01-11T11:23:41.278Z,45.00
2023-01-11T11:24:41.227Z,39.38
2023-01-11T11:25:43.308Z,39.38
2023-01-11T11:26:41.332Z,39.38
2023-01-11T11:27:41.288Z,33.75
2023-01-11T11:28:41.281Z,39.38
2023-01-11T11:29:41.295Z,33.75
2023-01-11T11:30:41.317Z,33.75
2023-01-11T11:31:42.211Z,39.38
2023-01-11T11:32:41.292Z,39.38
2023-01-11T11:33:41.293Z,45.00
2023-01-11T11:34:41.303Z,45.00
2023-01-11T11:35:41.316Z,45.00
2023-01-11T11:36:41.304Z,39.38
2023-01-11T11:37:41.294Z,45.00
2023-01-11T11:38:41.283Z,45.00
2023-01-11T11:39:41.298Z,45.00
2023-01-11T11:40:41.299Z,39.38
2023-01-11T11:43:07.233Z,39.38
2023-01-11T11:44:07.232Z,39.38
2023-01-11T11:45:07.261Z,39.38
2023-01-11T11:46:07.393Z,39.38
2023-01-11T11:47:07.296Z,39.38
2023-01-11T11:48:07.303Z,39.38
2023-01-11T11:49:07.312Z,45.00
2023-01-11T11:50:07.305Z,50.62
2023-01-11T11:51:07.324Z,56.25
2023-01-11T11:52:07.320Z,56.25
2023-01-11T11:53:07.311Z,61.88
2023-01-11T11:54:07.327Z,61.88
2023-01-11T11:55:07.344Z,61.88
2023-01-11T11:56:07.340Z,56.25
2023-01-11T11:57:07.338Z,45.00
2023-01-11T11:58:07.333Z,45.00
2023-01-11T11:59:07.357Z,56.25
2023-01-11T12:00:07.351Z,67.50
2023-01-11T12:01:07.387Z,73.12
2023-01-11T12:02:07.410Z,78.75
2023-01-11T12:03:07.384Z,78.75
2023-01-11T12:04:07.828Z,84.38
2023-01-11T12:05:07.425Z,78.75
2023-01-11T12:06:07.382Z,67.50
2023-01-11T12:07:07.401Z,67.50
2023-01-11T12:08:07.429Z,56.25
2023-01-11T12:09:07.460Z,67.50
2023-01-11T12:10:07.473Z,73.12
2023-01-11T12:11:07.586Z,73.12
2023-01-11T12:12:07.522Z,67.50
2023-01-11T12:13:07.535Z,56.25
2023-01-11T12:14:08.332Z,56.25
2023-01-11T12:15:07.582Z,61.88
2023-01-11T12:16:07.633Z,50.62
2023-01-11T12:17:07.642Z,45.00
2023-01-11T12:18:07.627Z,45.00
2023-01-11T12:19:07.613Z,45.00
2023-01-11T12:20:07.635Z,50.62
2023-01-11T12:21:07.673Z,67.50
2023-01-11T12:23:33.626Z,73.12
2023-01-11T12:24:33.643Z,78.75
2023-01-11T12:25:33.635Z,84.38
2023-01-11T12:26:33.646Z,84.38
2023-01-11T12:27:33.652Z,78.75
2023-01-11T12:28:33.635Z,67.50
2023-01-11T12:29:33.674Z,67.50
2023-01-11T12:30:33.731Z,61.88
2023-01-11T12:31:33.634Z,45.00
2023-01-11T12:33:59.658Z,45.00
2023-01-11T12:34:59.579Z,50.62
2023-01-11T12:36:01.276Z,61.88
2023-01-11T12:36:59.583Z,67.50
2023-01-11T12:37:59.631Z,61.88
2023-01-11T12:38:59.616Z,56.25
2023-01-11T12:39:59.620Z,50.62
2023-01-11T12:40:59.630Z,50.62
2023-01-11T12:41:59.633Z,50.62
2023-01-11T12:42:59.648Z,50.62
2023-01-11T12:43:59.636Z,39.38
2023-01-11T12:44:59.657Z,33.75
2023-01-11T12:45:59.686Z,28.12
2023-01-11T12:46:59.682Z,28.12
2023-01-11T12:47:59.684Z,33.75
2023-01-11T12:48:59.682Z,33.75
2023-01-11T12:49:59.764Z,33.75
2023-01-11T12:50:59.684Z,33.75
2023-01-11T12:51:59.710Z,33.75
2023-01-11T12:52:59.713Z,61.88
2023-01-11T12:53:59.709Z,78.75
2023-01-11T12:54:59.710Z,78.75
2023-01-11T12:55:59.724Z,84.38
2023-01-11T12:56:59.739Z,84.38
2023-01-11T12:57:59.725Z,90.00
2023-01-11T12:58:59.730Z,90.00
2023-01-11T12:59:59.720Z,95.62
2023-01-11T13:00:59.791Z,90.00
2023-01-11T13:01:59.836Z,84.38
2023-01-11T13:02:59.748Z,78.75
2023-01-11T13:03:59.736Z,78.75
2023-01-11T13:04:59.753Z,73.12
2023-01-11T13:05:59.778Z,67.50
2023-01-11T13:07:00.138Z,61.88
2023-01-11T13:07:59.776Z,56.25
2023-01-11T13:08:59.779Z,56.25
2023-01-11T13:09:59.783Z,56.25
2023-01-11T13:10:59.768Z,56.25
2023-01-11T13:11:59.783Z,61.88
2023-01-11T13:12:59.798Z,61.88
2023-01-11T13:15:25.843Z,90.00
2023-01-11T13:16:25.800Z,95.62
2023-01-11T13:17:25.777Z,90.00
2023-01-11T13:18:25.880Z,84.38
2023-01-11T13:19:25.808Z,78.75
2023-01-11T13:21:52.903Z,67.50
2023-01-11T13:22:51.725Z,73.12
2023-01-11T13:25:17.623Z,95.62
2023-01-11T13:26:17.632Z,101.25
2023-01-11T13:28:43.621Z,101.25
2023-01-11T13:29:43.603Z,95.62